Time;durP1;ratioP1;P1;durP2;ratioP2;P2;SDS_P1;SDS_P2;PMS_P1;PMS_P2;Temp;Humidity;BMP_temperature;BMP_pressure;BME280_temperature;BME280_humidity;BME280_pressure;Samples;Min_cycle;Max_cycle;Signal;HPM_P1;HPM_P2
2023/06/26 00:01:56;;;;;;;6.75;5.93;;;24.90;53.70;;;;;;5028712;28;20127;-50
2023/06/26 00:04:24;;;;;;;7.07;6.43;;;24.90;53.80;;;;;;5026909;28;20053;-50
2023/06/26 00:06:51;;;;;;;9.63;7.07;;;24.90;53.90;;;;;;5031498;28;20469;-46
2023/06/26 00:09:28;;;;;;;10.48;6.70;;;24.80;53.90;;;;;;5030003;28;20103;-48
2023/06/26 00:11:55;;;;;;;10.25;6.07;;;24.80;54.00;;;;;;5023200;28;20120;-47
2023/06/26 00:14:26;;;;;;;11.38;7.80;;;24.70;53.90;;;;;;5032498;28;20383;-48
2023/06/26 00:16:59;;;;;;;8.57;6.25;;;24.70;54.10;;;;;;5031388;28;20140;-47
2023/06/26 00:19:26;;;;;;;8.40;6.20;;;24.70;54.00;;;;;;5024208;28;20041;-49
2023/06/26 00:21:55;;;;;;;7.80;6.60;;;24.60;54.10;;;;;;5028904;28;20136;-47
2023/06/26 00:24:26;;;;;;;7.70;5.93;;;24.50;54.20;;;;;;5023341;28;20048;-47
2023/06/26 00:26:53;;;;;;;7.47;6.53;;;24.50;54.30;;;;;;5023061;28;20088;-45
2023/06/26 00:29:22;;;;;;;8.30;6.13;;;24.50;54.40;;;;;;5032266;28;20116;-50
2023/06/26 00:31:51;;;;;;;10.15;7.00;;;24.40;54.60;;;;;;5024288;28;20034;-46
2023/06/26 00:34:22;;;;;;;13.20;6.82;;;24.40;54.60;;;;;;5012603;28;20137;-46
2023/06/26 00:36:54;;;;;;;10.70;6.47;;;24.40;54.70;;;;;;5009137;28;20045;-46
2023/06/26 00:39:25;;;;;;;19.10;7.28;;;24.30;54.70;;;;;;5031236;28;20432;-46
2023/06/26 00:41:55;;;;;;;12.85;6.65;;;24.30;54.70;;;;;;5030272;28;20064;-46
2023/06/26 00:44:24;;;;;;;7.95;5.65;;;24.30;54.90;;;;;;5009820;28;20047;-49
2023/06/26 00:46:55;;;;;;;7.35;6.55;;;24.20;55.00;;;;;;5024730;28;20064;-49
2023/06/26 00:49:23;;;;;;;6.90;6.30;;;24.20;55.10;;;;;;5031946;28;20404;-47
2023/06/26 00:51:52;;;;;;;9.02;6.53;;;24.20;55.20;;;;;;5011311;28;20525;-49
2023/06/26 00:54:24;;;;;;;7.32;6.40;;;24.10;55.30;;;;;;5020608;28;20049;-47
2023/06/26 00:56:52;;;;;;;8.95;5.97;;;24.10;55.20;;;;;;5030192;28;20033;-46
2023/06/26 00:59:18;;;;;;;8.55;6.68;;;24.10;55.30;;;;;;5031802;28;20037;-46
2023/06/26 01:01:48;;;;;;;9.57;6.78;;;24.00;55.40;;;;;;5030169;28;20041;-47
2023/06/26 01:04:20;;;;;;;11.98;6.65;;;24.00;55.50;;;;;;5006535;28;20053;-47
2023/06/26 01:06:56;;;;;;;10.90;6.75;;;24.00;55.70;;;;;;5027314;28;20045;-50
2023/06/26 01:09:24;;;;;;;14.07;7.97;;;24.00;55.60;;;;;;5029890;28;20076;-46
2023/06/26 01:11:51;;;;;;;11.23;6.88;;;24.00;55.60;;;;;;5018483;28;20067;-49
2023/06/26 01:14:20;;;;;;;9.52;6.50;;;23.90;55.60;;;;;;5018608;28;20038;-46
2023/06/26 01:16:51;;;;;;;11.73;5.75;;;23.90;56.10;;;;;;5008891;28;20045;-49
2023/06/26 01:19:28;;;;;;;7.65;6.63;;;23.90;56.20;;;;;;5026926;28;20041;-47
2023/06/26 01:22:14;;;;;;;7.50;6.30;;;23.90;56.70;;;;;;5011903;28;20046;-50
2023/06/26 01:24:51;;;;;;;7.40;6.43;;;23.90;56.60;;;;;;4990205;28;20053;-47
2023/06/26 01:27:21;;;;;;;9.15;6.00;;;23.90;56.60;;;;;;5027541;28;20065;-47
2023/06/26 01:29:51;;;;;;;11.63;6.13;;;23.90;56.30;;;;;;5030583;28;20049;-48
2023/06/26 01:32:18;;;;;;;6.75;6.05;;;23.90;56.60;;;;;;5011203;28;20156;-48
2023/06/26 01:34:47;;;;;;;6.07;5.57;;;23.90;56.30;;;;;;5018203;28;20036;-46
2023/06/26 01:37:14;;;;;;;8.57;7.20;;;23.90;55.50;;;;;;5029805;28;20037;-47
2023/06/26 01:39:43;;;;;;;8.00;6.18;;;23.90;55.90;;;;;;5030266;28;20052;-47
2023/06/26 01:42:14;;;;;;;7.93;6.33;;;24.00;55.70;;;;;;5022694;28;20038;-48
2023/06/26 01:44:45;;;;;;;6.10;5.50;;;24.00;55.40;;;;;;5012338;28;20145;-47
2023/06/26 01:47:18;;;;;;;7.25;6.13;;;24.10;55.10;;;;;;5021879;28;20037;-46
2023/06/26 01:50:09;;;;;;;6.32;5.82;;;24.20;54.80;;;;;;5024682;28;20041;-47
2023/06/26 01:53:16;;;;;;;10.00;6.00;;;24.30;54.30;;;;;;5009033;28;20041;-46
2023/06/26 01:55:53;;;;;;;6.07;5.57;;;24.40;54.20;;;;;;5025107;28;20041;-47
2023/06/26 01:58:29;;;;;;;5.85;5.35;;;24.50;53.90;;;;;;5013856;28;20045;-48
2023/06/26 02:01:06;;;;;;;6.60;5.70;;;24.50;53.80;;;;;;5009659;28;20053;-47
2023/06/26 02:03:35;;;;;;;6.57;6.07;;;24.60;53.40;;;;;;5006984;28;20502;-47
2023/06/26 02:06:04;;;;;;;6.68;5.45;;;24.70;53.20;;;;;;5011190;28;20053;-46
2023/06/26 02:08:32;;;;;;;7.25;6.65;;;24.80;53.20;;;;;;5009776;28;20046;-50
2023/06/26 02:10:59;;;;;;;6.35;5.75;;;24.80;53.00;;;;;;5006635;28;20045;-47
2023/06/26 02:13:25;;;;;;;6.93;6.25;;;24.80;52.90;;;;;;5028833;28;20042;-48
2023/06/26 02:15:53;;;;;;;7.55;6.85;;;24.90;53.40;;;;;;5010659;28;20046;-49
2023/06/26 02:18:23;;;;;;;7.95;7.13;;;24.90;53.00;;;;;;5008148;28;20125;-49
2023/06/26 02:20:53;;;;;;;6.70;6.03;;;25.00;52.80;;;;;;5009435;28;20445;-47
2023/06/26 02:23:21;;;;;;;6.20;5.65;;;25.00;52.90;;;;;;5023892;28;20045;-47
2023/06/26 02:25:50;;;;;;;7.78;7.03;;;25.00;52.90;;;;;;5007463;28;20041;-48
2023/06/26 02:28:19;;;;;;;7.00;6.30;;;25.00;52.80;;;;;;5029470;28;20087;-48
2023/06/26 02:30:45;;;;;;;7.90;7.20;;;25.00;53.00;;;;;;5011391;28;20045;-48
2023/06/26 02:33:16;;;;;;;7.70;6.90;;;25.00;53.00;;;;;;5021141;28;20112;-49
2023/06/26 02:35:50;;;;;;;7.45;6.65;;;25.10;53.20;;;;;;5029167;28;20042;-47
2023/06/26 02:38:20;;;;;;;7.35;6.65;;;25.00;53.00;;;;;;5021403;28;20045;-47
2023/06/26 02:40:47;;;;;;;8.27;6.13;;;25.00;53.10;;;;;;5010438;28;20045;-47
2023/06/26 02:43:17;;;;;;;7.18;6.47;;;25.00;53.00;;;;;;5006866;28;20076;-46
2023/06/26 02:45:47;;;;;;;7.55;6.85;;;25.00;53.10;;;;;;5020497;28;20038;-46
2023/06/26 02:48:17;;;;;;;8.10;7.00;;;24.90;53.30;;;;;;5011521;28;20568;-47
2023/06/26 02:50:46;;;;;;;7.43;6.72;;;24.90;53.20;;;;;;5005714;28;20129;-49
2023/06/26 02:53:17;;;;;;;7.25;6.53;;;24.90;53.30;;;;;;5023996;28;20490;-45
2023/06/26 02:55:47;;;;;;;7.97;6.82;;;24.90;53.40;;;;;;5015014;28;20043;-45
2023/06/26 02:58:14;;;;;;;9.40;6.53;;;24.90;53.40;;;;;;5015854;28;20064;-47
2023/06/26 03:00:46;;;;;;;8.05;7.22;;;24.80;53.40;;;;;;5015590;28;20108;-48
2023/06/26 03:03:18;;;;;;;7.65;6.85;;;24.80;53.70;;;;;;5014904;28;20065;-46
2023/06/26 03:05:46;;;;;;;7.15;6.45;;;24.80;53.50;;;;;;5015697;28;20140;-49
2023/06/26 03:08:13;;;;;;;7.05;6.43;;;24.70;53.60;;;;;;5016264;28;20096;-49
2023/06/26 03:10:40;;;;;;;7.93;6.28;;;24.70;53.60;;;;;;5010700;28;20481;-49
2023/06/26 03:13:07;;;;;;;6.50;5.63;;;24.70;53.40;;;;;;5028890;28;20042;-49
2023/06/26 03:15:34;;;;;;;8.23;5.50;;;24.60;53.20;;;;;;5011420;28;20120;-50
2023/06/26 03:18:01;;;;;;;5.80;5.30;;;24.60;53.10;;;;;;5032950;28;20430;-47
2023/06/26 03:20:28;;;;;;;6.82;5.50;;;24.60;52.90;;;;;;5015249;28;20049;-47
2023/06/26 03:22:57;;;;;;;6.78;5.05;;;24.50;52.90;;;;;;5012731;28;20060;-46
2023/06/26 03:25:30;;;;;;;6.40;5.55;;;24.50;52.90;;;;;;5020929;28;20042;-49
2023/06/26 03:28:19;;;;;;;6.18;5.57;;;24.50;53.00;;;;;;5006830;28;20099;-47
2023/06/26 03:30:48;;;;;;;6.07;5.47;;;24.50;53.00;;;;;;5014055;28;20037;-47
2023/06/26 03:33:18;;;;;;;6.43;5.45;;;24.40;53.10;;;;;;5006392;28;20039;-47
2023/06/26 03:35:45;;;;;;;7.03;4.65;;;24.40;53.10;;;;;;5009341;28;20042;-48
2023/06/26 03:38:13;;;;;;;6.45;5.30;;;24.40;53.20;;;;;;5014342;28;20123;-49
2023/06/26 03:40:44;;;;;;;5.50;4.97;;;24.40;53.40;;;;;;5011423;28;20048;-46
2023/06/26 03:43:20;;;;;;;;;;;;;;;;;;;;;
2023/06/26 03:46:10;;;;;;;6.78;5.45;;;24.30;53.30;;;;;;5021959;28;20057;-48
2023/06/26 03:48:41;;;;;;;5.68;4.53;;;24.30;53.10;;;;;;5014764;28;20037;-47
2023/06/26 03:51:10;;;;;;;5.28;4.60;;;24.30;53.10;;;;;;5013858;28;20041;-49
2023/06/26 03:53:37;;;;;;;5.30;4.82;;;24.30;53.10;;;;;;5010085;28;20116;-45
2023/06/26 03:56:07;;;;;;;6.65;4.53;;;24.30;53.10;;;;;;5006949;28;20045;-47
2023/06/26 03:58:36;;;;;;;5.03;4.53;;;24.30;52.90;;;;;;5014106;28;20046;-49
2023/06/26 04:01:03;;;;;;;5.07;4.57;;;24.20;52.80;;;;;;5014932;28;20045;-46
2023/06/26 04:03:42;;;;;;;4.93;4.45;;;24.20;52.90;;;;;;5010441;28;20045;-48
2023/06/26 04:06:11;;;;;;;4.55;3.95;;;24.20;52.70;;;;;;5013531;28;20049;-50
2023/06/26 04:08:39;;;;;;;4.32;3.78;;;24.20;52.60;;;;;;5014547;28;20076;-49
2023/06/26 04:11:07;;;;;;;5.13;3.92;;;24.20;52.40;;;;;;5009060;28;20049;-50
2023/06/26 04:13:36;;;;;;;5.85;4.38;;;24.20;52.40;;;;;;5028606;28;20041;-47
2023/06/26 04:16:06;;;;;;;5.40;4.80;;;24.20;52.50;;;;;;5031986;28;20072;-47
2023/06/26 04:18:33;;;;;;;5.00;4.05;;;24.20;52.60;;;;;;5031957;28;20087;-45
2023/06/26 04:21:13;;;;;;;4.32;3.92;;;24.20;52.50;;;;;;5023978;28;20071;-48
2023/06/26 04:23:44;;;;;;;5.70;3.67;;;24.20;52.50;;;;;;5024806;28;20041;-48
2023/06/26 04:26:14;;;;;;;4.78;3.50;;;24.20;52.30;;;;;;5028566;28;20073;-46
2023/06/26 04:28:42;;;;;;;5.57;3.92;;;24.20;52.50;;;;;;5031753;28;20045;-46
2023/06/26 04:31:09;;;;;;;4.30;3.90;;;24.20;52.50;;;;;;5030379;28;20065;-46
2023/06/26 04:33:36;;;;;;;4.75;3.63;;;24.20;52.40;;;;;;5029966;28;20041;-48
2023/06/26 04:36:05;;;;;;;4.75;4.10;;;24.20;52.30;;;;;;5030863;28;20038;-47
2023/06/26 04:38:33;;;;;;;3.90;3.50;;;24.20;52.40;;;;;;5030432;28;20072;-48
2023/06/26 04:41:00;;;;;;;6.30;4.13;;;24.20;52.20;;;;;;5030370;28;20482;-46
2023/06/26 04:43:27;;;;;;;7.75;4.40;;;24.20;52.30;;;;;;5029623;28;20628;-47
2023/06/26 04:45:54;;;;;;;7.10;4.03;;;24.20;52.40;;;;;;5030176;28;20136;-45
2023/06/26 04:48:21;;;;;;;5.85;3.45;;;24.20;52.50;;;;;;5029645;28;20049;-48
2023/06/26 04:50:53;;;;;;;4.25;3.85;;;24.20;52.60;;;;;;5030776;28;20108;-48
2023/06/26 04:53:20;;;;;;;;;;;24.10;52.50;;;;;;5025513;28;20064;-45
2023/06/26 04:55:47;;;;;;;4.13;3.72;;;24.20;52.00;;;;;;5029853;28;20016;-46
2023/06/26 04:58:14;;;;;;;4.93;3.85;;;24.10;52.40;;;;;;5030468;28;20095;-48
2023/06/26 05:00:42;;;;;;;5.78;4.40;;;24.10;52.50;;;;;;5030755;28;20133;-46
2023/06/26 05:03:11;;;;;;;6.20;4.47;;;24.10;52.80;;;;;;5022342;28;20593;-46
2023/06/26 05:05:38;;;;;;;5.22;4.03;;;24.10;53.10;;;;;;5030577;28;20064;-46
2023/06/26 05:08:20;;;;;;;3.92;3.58;;;24.10;53.20;;;;;;5030332;28;20073;-45
2023/06/26 05:10:47;;;;;;;4.40;3.53;;;24.10;53.50;;;;;;5027708;28;20075;-49
2023/06/26 05:13:17;;;;;;;4.95;4.45;;;24.10;53.30;;;;;;5022984;28;20117;-46
2023/06/26 05:15:44;;;;;;;5.35;4.10;;;24.10;53.40;;;;;;5030213;28;20034;-46
2023/06/26 05:18:12;;;;;;;9.15;4.85;;;24.10;53.40;;;;;;5029463;28;20053;-47
2023/06/26 05:20:40;;;;;;;4.70;3.47;;;24.10;54.20;;;;;;5028622;28;20502;-46
2023/06/26 05:23:07;;;;;;;8.90;4.05;;;24.10;53.30;;;;;;5028622;28;20065;-47
2023/06/26 05:25:34;;;;;;;6.25;4.50;;;24.10;53.40;;;;;;5021653;28;20505;-45
2023/06/26 05:28:01;;;;;;;4.45;3.80;;;24.00;53.50;;;;;;5030390;28;20557;-47
2023/06/26 05:30:28;;;;;;;7.88;4.72;;;24.10;53.70;;;;;;5029901;28;20038;-46
2023/06/26 05:32:55;;;;;;;6.97;3.80;;;24.00;53.80;;;;;;5028357;28;20044;-50
2023/06/26 05:35:30;;;;;;;4.25;3.80;;;24.00;53.90;;;;;;5061571;28;20451;-44
2023/06/26 05:37:58;;;;;;;5.97;4.57;;;24.10;54.10;;;;;;5067103;28;20036;-44
2023/06/26 05:40:25;;;;;;;7.93;3.63;;;24.10;54.20;;;;;;5066418;28;20116;-44
2023/06/26 05:42:52;;;;;;;5.78;3.95;;;24.10;54.30;;;;;;5054435;28;20104;-45
2023/06/26 05:45:19;;;;;;;6.47;3.80;;;24.10;54.40;;;;;;5037701;28;20049;-44
2023/06/26 05:47:46;;;;;;;7.25;3.95;;;24.10;54.40;;;;;;5045723;28;20065;-45
2023/06/26 05:50:13;;;;;;;5.72;3.90;;;24.10;54.20;;;;;;5045336;28;20045;-47
2023/06/26 05:52:40;;;;;;;4.43;3.33;;;24.10;54.30;;;;;;5036999;28;20111;-45
2023/06/26 05:55:07;;;;;;;5.35;3.72;;;24.10;54.60;;;;;;5029120;28;20047;-50
2023/06/26 05:57:34;;;;;;;4.53;3.58;;;24.10;54.80;;;;;;5042870;28;20045;-49
2023/06/26 06:00:03;;;;;;;5.95;3.85;;;24.10;54.90;;;;;;5048462;28;20116;-48
2023/06/26 06:02:41;;;;;;;11.05;4.82;;;24.10;54.70;;;;;;5047688;28;20140;-50
2023/06/26 06:05:08;;;;;;;7.15;4.22;;;24.10;55.20;;;;;;5036804;28;20073;-48
2023/06/26 06:07:36;;;;;;;5.18;3.78;;;24.10;54.70;;;;;;5034148;28;20068;-50
2023/06/26 06:10:03;;;;;;;6.57;4.10;;;24.10;55.00;;;;;;5044781;28;20037;-50
2023/06/26 06:12:30;;;;;;;7.32;3.92;;;24.10;55.10;;;;;;5042170;28;20076;-48
2023/06/26 06:14:57;;;;;;;10.80;5.13;;;24.10;54.90;;;;;;5040257;28;20041;-50
2023/06/26 06:17:23;;;;;;;7.85;4.13;;;24.10;55.00;;;;;;5045124;28;20095;-49
2023/06/26 06:19:50;;;;;;;5.63;3.83;;;24.10;54.90;;;;;;5049316;28;20402;-48
2023/06/26 06:22:17;;;;;;;5.60;4.45;;;24.00;55.10;;;;;;5038988;28;20071;-49
2023/06/26 06:24:44;;;;;;;5.72;3.78;;;24.00;55.30;;;;;;5037385;28;20509;-49
2023/06/26 06:27:14;;;;;;;5.93;3.50;;;24.10;55.60;;;;;;5044931;28;20414;-49
2023/06/26 06:29:41;;;;;;;5.18;3.78;;;24.10;55.50;;;;;;5044852;28;20506;-47
2023/06/26 06:32:08;;;;;;;5.72;4.00;;;24.10;55.60;;;;;;5042422;28;20529;-49
2023/06/26 06:34:34;;;;;;;6.00;3.53;;;24.20;55.70;;;;;;5041167;28;20768;-49
2023/06/26 06:37:03;;;;;;;6.47;4.30;;;24.20;55.50;;;;;;5044992;28;20145;-50
2023/06/26 06:39:29;;;;;;;6.85;4.05;;;24.20;55.20;;;;;;5042700;28;20466;-50
2023/06/26 06:41:56;;;;;;;8.20;3.67;;;24.30;55.30;;;;;;5037604;28;20133;-50
2023/06/26 06:44:23;;;;;;;12.20;4.03;;;24.30;55.40;;;;;;5058493;28;20279;-52
2023/06/26 06:46:50;;;;;;;9.98;4.30;;;24.30;55.10;;;;;;5032783;28;20037;-50
2023/06/26 06:49:16;;;;;;;6.28;3.90;;;24.40;54.70;;;;;;5031632;28;20049;-50
2023/06/26 06:51:43;;;;;;;6.68;4.13;;;24.30;54.70;;;;;;5021352;28;20042;-51
2023/06/26 06:54:09;;;;;;;5.90;3.83;;;24.30;55.00;;;;;;5016061;28;20127;-52
2023/06/26 06:56:36;;;;;;;8.98;4.07;;;24.30;55.20;;;;;;5030438;28;20041;-53
2023/06/26 06:59:03;;;;;;;8.60;4.55;;;24.30;55.00;;;;;;5031659;28;20117;-53
2023/06/26 07:01:30;;;;;;;4.88;3.65;;;24.40;55.10;;;;;;5027328;28;20037;-52
2023/06/26 07:03:57;;;;;;;8.75;4.78;;;24.40;55.30;;;;;;5022821;28;20561;-52
2023/06/26 07:06:24;;;;;;;8.18;4.53;;;24.40;55.20;;;;;;5027202;28;20517;-52
2023/06/26 07:08:51;;;;;;;12.23;4.05;;;24.50;55.50;;;;;;5028658;28;20045;-50
2023/06/26 07:11:17;;;;;;;6.15;3.75;;;24.50;55.00;;;;;;5026644;28;20100;-51
2023/06/26 07:13:44;;;;;;;7.85;4.00;;;24.60;54.90;;;;;;5030737;28;20069;-51
2023/06/26 07:16:18;;;;;;;7.85;3.88;;;24.70;54.50;;;;;;5030729;28;20473;-52
2023/06/26 07:18:45;;;;;;;7.13;3.70;;;24.70;54.20;;;;;;5024867;28;20037;-52
2023/06/26 07:21:11;;;;;;;6.53;4.22;;;24.70;54.10;;;;;;5026403;28;20062;-52
2023/06/26 07:23:38;;;;;;;4.82;3.15;;;24.80;54.10;;;;;;5026650;28;20033;-52
2023/06/26 07:26:05;;;;;;;8.45;4.00;;;24.70;54.20;;;;;;5024000;28;20065;-53
2023/06/26 07:28:31;;;;;;;9.98;4.20;;;24.80;54.40;;;;;;5029082;28;20091;-50
2023/06/26 07:30:58;;;;;;;7.75;3.70;;;24.80;54.10;;;;;;5031587;28;20057;-51
2023/06/26 07:33:24;;;;;;;5.75;3.33;;;24.90;54.10;;;;;;5025645;28;20045;-51
2023/06/26 07:35:51;;;;;;;10.57;4.13;;;24.90;54.20;;;;;;5031790;28;20037;-52
2023/06/26 07:38:18;;;;;;;8.57;3.97;;;24.90;54.30;;;;;;5030442;28;20156;-51
2023/06/26 07:40:45;;;;;;;9.63;4.55;;;25.00;53.90;;;;;;5027331;28;20044;-51
2023/06/26 07:43:11;;;;;;;6.95;4.35;;;25.10;54.00;;;;;;5030409;28;20064;-52
2023/06/26 07:45:38;;;;;;;5.47;4.57;;;25.10;54.00;;;;;;5031061;28;20068;-52
2023/06/26 07:48:05;;;;;;;8.07;3.83;;;25.20;53.50;;;;;;5028114;28;20076;-52
2023/06/26 07:50:32;;;;;;;5.25;3.38;;;25.30;53.40;;;;;;5028229;28;20048;-49
2023/06/26 07:52:59;;;;;;;7.72;4.22;;;25.30;53.00;;;;;;5028215;28;20045;-49
2023/06/26 07:55:26;;;;;;;8.57;4.20;;;25.30;52.90;;;;;;5027181;28;20132;-51
2023/06/26 07:57:55;;;;;;;7.55;4.35;;;25.30;52.70;;;;;;5029199;28;20056;-52
2023/06/26 08:00:21;;;;;;;5.50;3.78;;;25.40;52.60;;;;;;5030402;28;20116;-51
2023/06/26 08:02:51;;;;;;;6.30;4.25;;;25.40;52.40;;;;;;5024188;28;20125;-49
2023/06/26 08:05:18;;;;;;;6.43;3.92;;;25.40;52.50;;;;;;5037802;28;20049;-51
2023/06/26 08:07:45;;;;;;;6.80;4.35;;;25.40;52.40;;;;;;5020154;28;20038;-52
2023/06/26 08:10:12;;;;;;;6.75;3.85;;;25.40;52.10;;;;;;5028804;28;20046;-50
2023/06/26 08:12:44;;;;;;;7.72;3.63;;;25.50;52.30;;;;;;5027877;28;20033;-52
2023/06/26 08:15:11;;;;;;;6.47;3.83;;;25.50;52.00;;;;;;5030347;28;20033;-51
2023/06/26 08:17:38;;;;;;;7.88;4.32;;;25.50;52.30;;;;;;5030069;28;20064;-51
2023/06/26 08:20:07;;;;;;;7.95;4.00;;;25.50;52.00;;;;;;5024333;28;20037;-51
2023/06/26 08:22:34;;;;;;;5.97;3.65;;;25.50;51.90;;;;;;5024142;28;20406;-51
2023/06/26 08:25:03;;;;;;;7.13;4.03;;;25.50;52.00;;;;;;5026982;28;20121;-50
2023/06/26 08:27:29;;;;;;;6.88;4.10;;;25.50;52.00;;;;;;5029697;28;20076;-49
2023/06/26 08:29:56;;;;;;;7.03;3.60;;;25.50;51.60;;;;;;5030227;28;20067;-51
2023/06/26 08:32:23;;;;;;;9.82;3.45;;;25.60;51.80;;;;;;5029189;28;20045;-48
2023/06/26 08:34:50;;;;;;;7.22;3.30;;;25.60;51.70;;;;;;5023934;28;20057;-52
2023/06/26 08:37:17;;;;;;;6.07;3.40;;;25.60;52.00;;;;;;5020975;28;20045;-51
2023/06/26 08:39:43;;;;;;;6.20;2.95;;;25.60;52.50;;;;;;5020728;28;20117;-51
2023/06/26 08:42:10;;;;;;;7.00;3.40;;;25.70;52.40;;;;;;5019785;28;20116;-51
2023/06/26 08:44:37;;;;;;;4.68;2.80;;;25.80;52.30;;;;;;5022698;28;20045;-49
2023/06/26 08:47:19;;;;;;;5.90;3.00;;;25.80;52.10;;;;;;5027531;28;20072;-52
2023/06/26 08:50:00;;;;;;;5.70;2.53;;;25.90;52.10;;;;;;5026011;28;20116;-52
2023/06/26 08:52:42;;;;;;;6.57;3.38;;;26.00;51.30;;;;;;5026141;28;20557;-52
2023/06/26 08:55:11;;;;;;;3.73;2.43;;;26.00;50.90;;;;;;5026648;28;20033;-52
2023/06/26 08:57:38;;;;;;;5.10;2.55;;;26.10;51.30;;;;;;5019981;28;20064;-52
2023/06/26 09:00:06;;;;;;;6.55;2.95;;;26.10;51.00;;;;;;5023084;28;20036;-51
2023/06/26 09:02:33;;;;;;;13.65;4.10;;;26.10;51.40;;;;;;5029663;28;20394;-52
2023/06/26 09:05:00;;;;;;;3.92;2.78;;;26.10;50.60;;;;;;5030476;28;20124;-52
2023/06/26 09:07:27;;;;;;;4.32;2.40;;;26.10;50.40;;;;;;5029164;28;20068;-51
2023/06/26 09:09:53;;;;;;;3.17;2.35;;;26.10;50.30;;;;;;5022694;28;20099;-47
2023/06/26 09:12:20;;;;;;;4.85;2.00;;;26.00;50.70;;;;;;5028625;28;20068;-51
2023/06/26 09:14:47;;;;;;;5.70;2.92;;;26.10;51.40;;;;;;5029860;28;20037;-48
2023/06/26 09:17:14;;;;;;;6.93;2.78;;;26.10;50.40;;;;;;5023518;28;20113;-52
2023/06/26 09:19:47;;;;;;;3.28;1.95;;;26.10;50.00;;;;;;5028911;28;20079;-52
2023/06/26 09:22:14;;;;;;;3.95;2.28;;;26.20;49.90;;;;;;5029291;28;20060;-51
2023/06/26 09:24:42;;;;;;;5.70;2.28;;;26.20;49.60;;;;;;5022766;28;20041;-50
2023/06/26 09:27:09;;;;;;;4.40;2.05;;;26.30;49.90;;;;;;5028640;28;20627;-52
2023/06/26 09:29:36;;;;;;;4.10;2.08;;;26.30;49.50;;;;;;5028665;28;20048;-51
2023/06/26 09:32:03;;;;;;;4.82;2.05;;;26.30;49.50;;;;;;5026915;28;20046;-52
2023/06/26 09:34:31;;;;;;;2.15;1.83;;;26.40;48.60;;;;;;5029683;28;20053;-51
2023/06/26 09:37:00;;;;;;;6.90;2.97;;;26.40;49.10;;;;;;5028689;28;20084;-48
2023/06/26 09:39:30;;;;;;;4.20;2.20;;;26.30;48.90;;;;;;5019946;28;20038;-48
2023/06/26 09:41:57;;;;;;;3.00;2.00;;;26.30;48.80;;;;;;5017757;28;20061;-52
2023/06/26 09:44:24;;;;;;;3.35;2.13;;;26.20;49.00;;;;;;5014944;28;20458;-52
2023/06/26 09:46:50;;;;;;;4.35;1.75;;;26.20;48.30;;;;;;5018919;28;20034;-52
2023/06/26 09:49:17;;;;;;;2.28;1.50;;;26.20;48.50;;;;;;5018155;28;20109;-51
2023/06/26 09:51:44;;;;;;;3.75;1.92;;;26.20;49.00;;;;;;5026685;28;20041;-51
2023/06/26 09:54:11;;;;;;;4.32;2.03;;;26.20;48.60;;;;;;5016857;28;20046;-52
2023/06/26 09:56:38;;;;;;;3.83;2.00;;;26.30;48.70;;;;;;5028073;28;20041;-51
2023/06/26 09:59:06;;;;;;;2.38;1.48;;;26.30;48.30;;;;;;5021195;28;20089;-52
2023/06/26 10:01:33;;;;;;;2.92;1.55;;;26.40;48.30;;;;;;5023884;28;20391;-52
2023/06/26 10:04:00;;;;;;;3.63;1.70;;;26.40;48.80;;;;;;5024372;28;20072;-52
2023/06/26 10:06:47;;;;;;;4.00;2.25;;;26.40;47.90;;;;;;5027816;28;20052;-51
2023/06/26 10:09:18;;;;;;;3.10;1.33;;;26.50;46.80;;;;;;5028489;28;20042;-52
2023/06/26 10:11:51;;;;;;;2.35;1.35;;;26.40;46.90;;;;;;5039417;28;20050;-53
2023/06/26 10:14:22;;;;;;;5.00;1.60;;;26.40;46.20;;;;;;5026499;28;20128;-53
2023/06/26 10:16:49;;;;;;;3.58;1.48;;;26.30;46.20;;;;;;5026719;28;20060;-53
2023/06/26 10:19:25;;;;;;;3.05;1.00;;;26.30;45.50;;;;;;5025716;28;20556;-53
2023/06/26 10:21:55;;;;;;;1.67;1.00;;;26.30;46.50;;;;;;5030849;28;20127;-49
2023/06/26 10:24:24;;;;;;;1.80;1.10;;;26.30;46.20;;;;;;5029284;28;20064;-52
2023/06/26 10:26:56;;;;;;;1.42;0.80;;;26.30;45.50;;;;;;5026357;28;20065;-52
2023/06/26 10:29:24;;;;;;;1.35;1.25;;;26.40;46.10;;;;;;5028662;28;20129;-52
2023/06/26 10:31:55;;;;;;;1.25;1.08;;;26.40;44.90;;;;;;5030420;28;20040;-51
2023/06/26 10:34:22;;;;;;;1.75;1.30;;;26.50;44.90;;;;;;5030052;28;20091;-52
2023/06/26 10:37:03;;;;;;;3.33;1.33;;;26.50;45.20;;;;;;5030511;28;20038;-52
2023/06/26 10:39:49;;;;;;;3.75;1.67;;;26.60;44.00;;;;;;5032553;28;20064;-52
2023/06/26 10:42:17;;;;;;;1.20;1.10;;;26.70;44.60;;;;;;5027608;28;20033;-51
2023/06/26 10:44:46;;;;;;;2.05;1.35;;;26.80;44.50;;;;;;5023845;28;20045;-53
2023/06/26 10:47:35;;;;;;;2.38;1.10;;;26.90;44.20;;;;;;5031939;28;20113;-51
2023/06/26 10:50:24;;;;;;;3.10;1.70;;;26.90;44.10;;;;;;5029490;28;20048;-48
2023/06/26 10:53:20;;;;;;;3.08;1.20;;;26.90;43.90;;;;;;5029364;28;20117;-49
2023/06/26 10:55:59;;;;;;;2.58;1.10;;;26.90;44.00;;;;;;5023651;28;20037;-52
2023/06/26 10:58:40;;;;;;;7.63;2.00;;;26.90;43.50;;;;;;5022669;28;20042;-53
2023/06/26 11:01:25;;;;;;;1.38;1.20;;;26.90;42.20;;;;;;5031873;28;20042;-51
2023/06/26 11:03:58;;;;;;;3.47;1.15;;;26.80;43.20;;;;;;5024587;28;20131;-52
2023/06/26 11:06:25;;;;;;;1.95;1.30;;;26.80;43.70;;;;;;5029119;28;20053;-51
2023/06/26 11:08:53;;;;;;;5.05;1.85;;;26.80;43.80;;;;;;5032121;28;20108;-50
2023/06/26 11:11:58;;;;;;;3.78;1.35;;;26.80;43.80;;;;;;5032098;28;20633;-52
2023/06/26 11:14:29;;;;;;;3.05;1.10;;;26.80;43.90;;;;;;5026394;28;20080;-52
2023/06/26 11:16:57;;;;;;;1.63;0.80;;;26.80;43.40;;;;;;5033880;28;20044;-52
2023/06/26 11:19:27;;;;;;;1.45;0.88;;;26.80;41.60;;;;;;5029642;28;20477;-52
2023/06/26 11:22:07;;;;;;;0.95;0.80;;;26.80;41.00;;;;;;5031359;28;20025;-52
2023/06/26 11:24:34;;;;;;;3.67;0.85;;;26.80;40.60;;;;;;5026820;28;20041;-52
2023/06/26 11:27:02;;;;;;;1.20;1.00;;;26.90;42.00;;;;;;5031328;28;20037;-50
2023/06/26 11:29:30;;;;;;;2.67;0.60;;;26.90;41.80;;;;;;5031033;28;20657;-51
2023/06/26 11:32:02;;;;;;;5.03;0.82;;;26.90;41.60;;;;;;5026319;28;20037;-51
2023/06/26 11:34:31;;;;;;;3.38;1.15;;;27.00;40.60;;;;;;5040422;28;20029;-52
2023/06/26 11:37:01;;;;;;;2.00;1.00;;;27.10;39.40;;;;;;5030086;28;20045;-53
2023/06/26 11:39:27;;;;;;;3.30;1.35;;;27.20;39.40;;;;;;5023314;28;20064;-53
2023/06/26 11:41:56;;;;;;;2.58;0.60;;;27.20;39.80;;;;;;5024417;28;20045;-51
2023/06/26 11:44:23;;;;;;;2.42;0.85;;;27.30;40.30;;;;;;5031241;28;20473;-53
2023/06/26 11:46:54;;;;;;;2.63;0.75;;;27.30;40.00;;;;;;5030938;28;20437;-52
2023/06/26 11:49:23;;;;;;;1.08;0.70;;;27.40;38.90;;;;;;5026533;28;20049;-53
2023/06/26 11:51:49;;;;;;;3.00;0.95;;;27.50;38.90;;;;;;5028034;28;20472;-52
2023/06/26 11:54:27;;;;;;;1.05;0.70;;;27.60;38.50;;;;;;5026534;28;20645;-53
2023/06/26 11:56:57;;;;;;;3.83;0.80;;;27.60;37.70;;;;;;5020905;28;20072;-53
2023/06/26 11:59:33;;;;;;;1.88;0.77;;;27.60;37.20;;;;;;5025010;28;20037;-53
2023/06/26 12:01:59;;;;;;;1.92;1.00;;;27.60;37.30;;;;;;5020206;28;20077;-53
2023/06/26 12:04:26;;;;;;;3.10;0.90;;;27.60;37.40;;;;;;5021734;28;20125;-52
2023/06/26 12:06:58;;;;;;;1.30;0.60;;;27.60;37.00;;;;;;5016943;28;20042;-52
2023/06/26 12:09:26;;;;;;;1.48;0.82;;;27.60;36.60;;;;;;5020154;28;20490;-52
2023/06/26 12:11:54;;;;;;;3.78;0.85;;;27.60;36.40;;;;;;5024550;28;20406;-52
2023/06/26 12:14:23;;;;;;;3.42;0.75;;;27.60;36.50;;;;;;5018257;28;20096;-51
2023/06/26 12:16:50;;;;;;;0.98;0.63;;;27.60;36.10;;;;;;5026957;28;20068;-53
2023/06/26 12:19:17;;;;;;;2.17;0.88;;;27.70;36.40;;;;;;5027453;28;20041;-49
2023/06/26 12:21:48;;;;;;;2.58;1.13;;;27.70;35.70;;;;;;5029403;28;20103;-52
2023/06/26 12:24:17;;;;;;;1.92;0.82;;;27.80;34.20;;;;;;5026935;28;20045;-53
2023/06/26 12:26:46;;;;;;;2.15;0.88;;;27.80;35.10;;;;;;5029873;28;20092;-52
2023/06/26 12:29:14;;;;;;;2.08;0.85;;;27.80;34.80;;;;;;5030413;28;20121;-50
2023/06/26 12:31:42;;;;;;;1.05;0.55;;;27.90;34.50;;;;;;5026183;28;20045;-53
2023/06/26 12:34:12;;;;;;;7.28;0.75;;;27.90;34.40;;;;;;5024637;28;20517;-52
2023/06/26 12:36:46;;;;;;;3.80;0.90;;;27.90;34.20;;;;;;5029460;28;20048;-52
2023/06/26 12:39:15;;;;;;;1.20;0.70;;;27.90;35.70;;;;;;5026895;28;20056;-51
2023/06/26 12:41:45;;;;;;;4.60;1.20;;;28.10;35.00;;;;;;5026930;28;20033;-52
2023/06/26 12:44:21;;;;;;;2.53;1.30;;;28.20;34.50;;;;;;5029438;28;20041;-52
2023/06/26 12:46:53;;;;;;;1.60;1.02;;;28.30;34.70;;;;;;5029485;28;20571;-52
2023/06/26 12:49:30;;;;;;;2.42;1.00;;;28.40;35.50;;;;;;5024674;28;20486;-53
2023/06/26 12:52:01;;;;;;;1.33;0.95;;;28.50;34.30;;;;;;5030643;28;20053;-53
2023/06/26 12:54:28;;;;;;;1.65;0.90;;;28.50;34.40;;;;;;5016924;28;20569;-53
2023/06/26 12:56:55;;;;;;;1.73;0.73;;;28.50;34.40;;;;;;5023385;28;20090;-52
2023/06/26 12:59:22;;;;;;;1.48;0.88;;;28.60;34.30;;;;;;5029622;28;20064;-52
2023/06/26 13:01:49;;;;;;;3.65;1.08;;;28.60;34.70;;;;;;5022184;28;20050;-53